Time;durP1;ratioP1;P1;durP2;ratioP2;P2;SDS_P1;SDS_P2;PMS_P1;PMS_P2;Temp;Humidity;BMP_temperature;BMP_pressure;BME280_temperature;BME280_humidity;BME280_pressure;Samples;Min_cycle;Max_cycle;Signal;HPM_P1;HPM_P2
2022/01/12 00:01:46;;;;;;;74.57;29.95;;;;;;;3.78;87.40;103640.72;5048280;28;20458;-66
2022/01/12 00:04:12;;;;;;;81.75;30.60;;;;;;;3.81;87.51;103647.78;5049741;28;20025;-67
2022/01/12 00:06:37;;;;;;;77.55;29.70;;;;;;;3.84;87.66;103650.50;5045481;28;20025;-67
2022/01/12 00:09:06;;;;;;;79.28;32.78;;;;;;;3.88;87.39;103655.00;5040378;28;20412;-69
2022/01/12 00:11:36;;;;;;;79.43;30.42;;;;;;;3.88;87.62;103657.63;5038542;28;20543;-68
2022/01/12 00:14:02;;;;;;;71.45;30.17;;;;;;;3.90;87.50;103654.25;5029162;28;20046;-66
2022/01/12 00:16:27;;;;;;;67.32;28.10;;;;;;;3.91;87.40;103653.44;5027775;28;20026;-66
2022/01/12 00:18:52;;;;;;;67.85;27.40;;;;;;;3.90;87.56;103654.25;5028642;28;20040;-66
2022/01/12 00:21:18;;;;;;;66.80;26.83;;;;;;;3.91;87.48;103636.88;5029051;28;20460;-66
2022/01/12 00:23:43;;;;;;;63.95;26.88;;;;;;;3.94;87.58;103628.28;5026301;28;20169;-67
2022/01/12 00:26:12;;;;;;;58.45;24.40;;;;;;;3.92;87.66;103623.03;5028866;28;20025;-66
2022/01/12 00:34:08;;;;;;;64.38;25.23;;;;;;;3.89;88.24;103620.28;5028788;28;20543;-66
2022/01/12 00:36:35;;;;;;;71.75;28.75;;;;;;;3.89;88.26;103615.06;5028214;28;20315;-64
2022/01/12 00:39:02;;;;;;;63.88;24.98;;;;;;;3.91;87.98;103629.03;5027721;28;20384;-64
2022/01/12 00:41:27;;;;;;;69.07;29.13;;;;;;;3.83;88.23;103635.69;5025837;28;20021;-64
2022/01/12 00:43:58;;;;;;;59.15;24.05;;;;;;;3.82;88.30;103631.31;5028298;28;20392;-65
2022/01/12 00:46:28;;;;;;;77.18;30.00;;;;;;;3.89;88.18;103643.75;5027670;28;20025;-64
2022/01/12 00:48:55;;;;;;;72.30;28.05;;;;;;;3.84;88.38;103648.78;5028434;28;20083;-64
2022/01/12 00:51:21;;;;;;;65.20;25.10;;;;;;;3.83;88.34;103652.25;5041670;28;20025;-64
2022/01/12 00:53:47;;;;;;;59.60;25.38;;;;;;;3.89;88.17;103656.81;5047386;28;20029;-62
2022/01/12 00:56:13;;;;;;;75.15;28.83;;;;;;;3.89;88.04;103651.59;5046684;28;20506;-63
2022/01/12 00:58:38;;;;;;;75.20;28.90;;;;;;;3.91;87.87;103644.69;5047219;28;20024;-63
2022/01/12 01:01:03;;;;;;;68.45;29.52;;;;;;;3.88;87.90;103641.97;5047940;28;20080;-63
2022/01/12 01:03:30;;;;;;;68.47;27.50;;;;;;;3.88;87.85;103641.97;5046102;28;20121;-64
2022/01/12 01:05:56;;;;;;;58.85;24.33;;;;;;;3.89;87.84;103635.94;5047681;28;20461;-64
2022/01/12 01:08:21;;;;;;;70.80;28.27;;;;;;;3.85;88.23;103640.13;5032060;28;20075;-64
2022/01/12 01:10:47;;;;;;;59.05;24.15;;;;;;;3.86;88.06;103635.81;5027562;28;20034;-63
2022/01/12 01:13:24;;;;;;;80.25;31.88;;;;;;;3.79;88.52;103629.44;5027534;28;20050;-64
2022/01/12 01:26:30;;;;;;;72.25;29.52;;;;;;;3.84;88.10;103608.78;5042588;28;20095;-64
2022/01/12 01:28:55;;;;;;;63.58;25.83;;;;;;;3.77;88.33;103608.53;5047327;28;20527;-63
2022/01/12 01:31:28;;;;;;;71.47;28.50;;;;;;;3.75;88.37;103612.81;5046083;28;20025;-64
2022/01/12 01:33:53;;;;;;;79.70;27.48;;;;;;;3.81;88.01;103622.59;5041847;28;20053;-63
2022/01/12 01:36:19;;;;;;;54.92;22.88;;;;;;;3.83;88.08;103631.38;5030319;28;20084;-65
2022/01/12 01:38:44;;;;;;;65.30;25.80;;;;;;;3.76;87.99;103631.94;5024702;28;20101;-60
2022/01/12 01:41:09;;;;;;;68.68;24.25;;;;;;;3.78;87.93;103644.22;5026682;28;20037;-64
2022/01/12 01:54:13;;;;;;;78.43;29.00;;;;;;;3.70;88.36;103686.47;5025392;28;20578;-66
2022/01/12 01:56:38;;;;;;;58.90;21.25;;;;;;;3.69;88.46;103690.78;5026192;28;20083;-65
2022/01/12 01:59:04;;;;;;;60.58;23.17;;;;;;;3.72;88.36;103688.31;5027147;28;20029;-64
2022/01/12 02:01:29;;;;;;;57.80;22.42;;;;;;;3.82;87.95;103691.31;5026514;28;20017;-65
2022/01/12 02:03:58;;;;;;;54.75;21.95;;;;;;;3.93;87.45;103697.84;5026434;28;20376;-65
2022/01/12 02:06:30;;;;;;;61.08;24.23;;;;;;;3.85;87.23;103715.78;5052405;23;20053;-65
2022/01/12 02:08:55;;;;;;;53.08;21.58;;;;;;;3.90;87.34;103739.47;5045952;28;20029;-65
2022/01/12 02:11:28;;;;;;;56.28;22.90;;;;;;;3.95;87.22;103740.53;5062561;28;20413;-63
2022/01/12 02:13:54;;;;;;;54.75;23.05;;;;;;;4.01;86.98;103739.91;5065434;28;20347;-65
2022/01/12 02:16:27;;;;;;;44.85;20.08;;;;;;;4.03;86.46;103744.34;5065165;28;20378;-64
2022/01/12 02:19:29;;;;;;;48.53;21.33;;;;;;;4.09;86.59;103748.91;5030045;28;21237;-64
2022/01/12 02:40:35;;;;;;;42.35;18.52;;;;;;;4.30;86.54;103769.78;5044679;28;20068;-65
2022/01/12 02:51:14;;;;;;;53.33;20.83;;;;;;;4.22;87.21;103771.19;5050940;28;20063;-64
2022/01/12 02:53:43;;;;;;;52.53;21.02;;;;;;;4.23;87.37;103766.84;5065352;28;20438;-65
2022/01/12 02:56:11;;;;;;;51.08;20.95;;;;;;;4.17;87.57;103754.44;5059225;28;20451;-65
2022/01/12 02:58:37;;;;;;;47.60;19.48;;;;;;;4.22;87.35;103760.75;5044742;28;21185;-65
2022/01/12 03:03:39;;;;;;;46.88;19.90;;;;;;;4.29;87.60;103761.88;5065519;28;20032;-65
2022/01/12 03:06:06;;;;;;;46.67;17.88;;;;;;;4.32;87.49;103746.34;5061212;28;20704;-66
2022/01/12 03:08:39;;;;;;;46.63;18.40;;;;;;;4.29;87.57;103747.13;5027950;28;20086;-64
2022/01/12 03:11:09;;;;;;;65.60;23.23;;;;;;;4.25;87.55;103747.81;5044553;28;20025;-66
2022/01/12 03:13:35;;;;;;;46.38;19.95;;;;;;;4.25;87.76;103739.09;5044579;28;20037;-65
2022/01/12 03:16:11;;;;;;;60.67;25.10;;;;;;;4.19;87.81;103729.31;5043835;28;20132;-64
2022/01/12 03:18:36;;;;;;;75.43;25.98;;;;;;;4.22;87.90;103732.06;5045733;28;20017;-66
2022/01/12 03:21:01;;;;;;;70.78;26.73;;;;;;;4.16;88.18;103732.66;5044154;28;20049;-63
2022/01/12 03:23:27;;;;;;;65.55;25.45;;;;;;;4.17;88.29;103746.63;5045614;28;20052;-65
2022/01/12 03:25:52;;;;;;;61.75;23.08;;;;;;;4.24;88.26;103759.09;5044502;28;20108;-63
2022/01/12 03:28:18;;;;;;;65.18;22.35;;;;;;;4.25;88.20;103768.69;5065768;28;20059;-64
2022/01/12 03:31:03;;;;;;;54.08;21.13;;;;;;;4.24;88.22;103769.53;5065115;28;20028;-64
2022/01/12 03:38:37;;;;;;;78.57;28.30;;;;;;;4.28;87.90;103781.88;5045191;28;20037;-65
2022/01/12 03:41:02;;;;;;;71.30;25.77;;;;;;;4.24;88.38;103777.34;5026427;28;20029;-66
2022/01/12 03:43:28;;;;;;;70.90;25.75;;;;;;;4.38;87.76;103777.91;5062044;28;20082;-65
2022/01/12 03:45:53;;;;;;;76.63;26.33;;;;;;;4.46;87.38;103783.44;5064733;28;20144;-65
2022/01/12 03:48:18;;;;;;;67.22;24.08;;;;;;;4.51;86.77;103787.13;5049304;28;20436;-65
2022/01/12 03:50:44;;;;;;;73.35;27.23;;;;;;;4.54;86.90;103789.84;5044940;28;20024;-62
2022/01/12 03:53:09;;;;;;;76.13;26.58;;;;;;;4.53;86.78;103790.69;5043166;28;20063;-64
2022/01/12 03:55:35;;;;;;;79.22;28.88;;;;;;;4.52;87.04;103794.09;5044682;28;20128;-64
2022/01/12 03:58:00;;;;;;;57.78;20.80;;;;;;;4.58;86.94;103797.81;5043765;28;20063;-65
2022/01/12 04:00:26;;;;;;;78.65;24.50;;;;;;;4.54;87.07;103802.91;5044958;28;20036;-65
2022/01/12 04:02:51;;;;;;;93.68;29.95;;;;;;;4.53;86.89;103797.63;5047556;28;20086;-65
2022/01/12 04:08:18;;;;;;;81.30;27.80;;;;;;;4.32;87.98;103800.25;5064832;28;20056;-64
2022/01/12 04:08:20;;;;;;;78.90;24.02;;;;;;;4.29;88.16;103793.22;5062967;28;20046;-64
2022/01/12 04:10:53;;;;;;;114.88;33.88;;;;;;;4.23;88.59;103788.63;5064688;28;20501;-65
2022/01/12 04:13:22;;;;;;;104.90;32.13;;;;;;;4.24;88.74;103781.72;5057441;28;20059;-64
2022/01/12 04:15:51;;;;;;;79.93;24.48;;;;;;;4.24;88.69;103785.19;5043650;28;20104;-68
2022/01/12 04:18:16;;;;;;;102.20;31.20;;;;;;;4.22;88.54;103784.25;5046401;28;20051;-64
2022/01/12 04:20:50;;;;;;;77.32;22.98;;;;;;;4.23;88.86;103791.25;5049011;28;20478;-66
2022/01/12 04:23:18;;;;;;;121.85;33.95;;;;;;;4.19;88.74;103788.44;5046906;28;20029;-65
2022/01/12 04:25:56;;;;;;;109.82;34.95;;;;;;;4.17;88.78;103788.38;5049039;28;20027;-66
2022/01/12 04:28:23;;;;;;;123.63;34.03;;;;;;;4.11;88.75;103789.03;5049195;28;20108;-66
2022/01/12 04:30:50;;;;;;;82.25;23.95;;;;;;;4.17;88.71;103796.22;5068271;28;20097;-65
2022/01/12 04:33:17;;;;;;;115.38;32.75;;;;;;;4.17;88.88;103801.44;5066644;28;20103;-65
2022/01/12 04:36:00;;;;;;;123.35;35.30;;;;;;;4.11;89.01;103819.44;5049344;28;20037;-66
2022/01/12 04:38:30;;;;;;;117.75;32.13;;;;;;;4.07;89.20;103821.06;5045488;28;20032;-66
2022/01/12 04:40:55;;;;;;;91.25;26.45;;;;;;;4.07;89.32;103817.53;5046421;28;20079;-67
2022/01/12 04:43:23;;;;;;;107.97;29.70;;;;;;;4.07;88.86;103804.50;5039577;28;20099;-65
2022/01/12 04:50:44;;;;;;;87.15;24.40;;;;;;;3.87;88.90;103778.47;5045524;28;20360;-66
2022/01/12 04:53:11;;;;;;;123.35;29.00;;;;;;;3.78;89.28;103769.44;5047270;28;20032;-67
2022/01/12 04:55:36;;;;;;;115.25;30.73;;;;;;;3.70;89.29;103781.25;5049693;28;20033;-67
2022/01/12 04:58:02;;;;;;;107.07;27.42;;;;;;;3.59;88.80;103779.91;5047156;28;20025;-66
2022/01/12 05:00:30;;;;;;;87.03;21.95;;;;;;;3.45;88.62;103782.81;5045728;28;20387;-66
2022/01/12 05:13:37;;;;;;;110.13;23.85;;;;;;;3.18;89.66;103801.59;5038981;28;20171;-67
2022/01/12 05:16:04;;;;;;;121.50;26.05;;;;;;;3.18;89.87;103814.63;5045861;28;20399;-67
2022/01/12 05:18:30;;;;;;;122.53;27.42;;;;;;;3.22;90.15;103816.56;5047806;28;20119;-66
2022/01/12 05:20:56;;;;;;;125.28;25.77;;;;;;;3.23;90.53;103820.97;5047466;28;20028;-66
2022/01/12 05:23:21;;;;;;;118.03;23.02;;;;;;;3.44;89.63;103832.28;5047480;28;20025;-67
2022/01/12 05:25:47;;;;;;;327.27;39.30;;;;;;;3.50;89.13;103827.34;5047280;28;20029;-68
2022/01/12 05:28:13;;;;;;;163.95;32.67;;;;;;;3.53;89.00;103827.47;5048023;28;20044;-68
2022/01/12 05:30:39;;;;;;;147.05;28.17;;;;;;;3.56;89.09;103834.53;5047868;28;20039;-68
2022/01/12 05:33:04;;;;;;;158.35;27.70;;;;;;;3.57;89.12;103841.50;5047057;28;20025;-67
2022/01/12 05:35:33;;;;;;;184.07;27.50;;;;;;;3.67;89.11;103839.38;5047556;28;20029;-66
2022/01/12 05:38:00;;;;;;;105.95;25.00;;;;;;;3.66;88.85;103823.66;5046613;28;20486;-69
2022/01/12 05:40:26;;;;;;;131.60;30.38;;;;;;;3.69;89.04;103828.13;5046852;28;20021;-68
2022/01/12 05:42:53;;;;;;;321.80;36.17;;;;;;;3.64;89.13;103820.09;5043987;28;20483;-69
2022/01/12 05:45:19;;;;;;;335.42;39.15;;;;;;;3.59;89.04;103834.66;5047047;28;20033;-69
2022/01/12 05:50:15;;;;;;;377.08;38.90;;;;;;;3.51;89.12;103837.84;5026654;28;20038;-65
2022/01/12 05:52:40;;;;;;;240.07;32.70;;;;;;;3.52;89.20;103830.88;5027497;28;20022;-69
2022/01/12 05:55:07;;;;;;;542.33;43.50;;;;;;;3.45;89.12;103837.56;5026732;28;20096;-69
2022/01/12 05:57:33;;;;;;;160.82;28.90;;;;;;;3.44;89.21;103845.31;5044195;28;20036;-68
2022/01/12 05:59:59;;;;;;;361.02;42.47;;;;;;;3.39;89.05;103847.69;5046829;28;20021;-68
2022/01/12 06:02:24;;;;;;;201.32;30.83;;;;;;;3.34;89.06;103855.31;5043872;28;20436;-68
2022/01/12 06:04:50;;;;;;;251.40;29.17;;;;;;;3.27;89.03;103848.94;5025700;28;20128;-68
2022/01/12 06:07:16;;;;;;;261.80;31.08;;;;;;;3.15;89.19;103853.59;5042821;28;20075;-66
2022/01/12 06:09:41;;;;;;;190.18;26.77;;;;;;;3.10;89.00;103855.97;5030274;28;20022;-67
2022/01/12 06:12:07;;;;;;;371.33;33.78;;;;;;;3.12;89.12;103863.88;5039545;28;20104;-67
2022/01/12 06:14:32;;;;;;;248.45;30.48;;;;;;;3.13;89.11;103863.06;5046281;28;20124;-69
2022/01/12 06:16:57;;;;;;;267.02;32.60;;;;;;;3.13;89.33;103874.34;5057550;28;20028;-69
2022/01/12 06:19:23;;;;;;;71.22;23.85;;;;;;;3.12;89.11;103885.59;5038838;28;20398;-67
2022/01/12 06:21:48;;;;;;;258.63;30.67;;;;;;;3.08;88.88;103898.41;5044768;28;20404;-68
2022/01/12 06:24:14;;;;;;;89.10;18.60;;;;;;;3.13;88.74;103904.75;5046843;28;20033;-66
2022/01/12 06:26:39;;;;;;;117.50;25.05;;;;;;;3.09;89.05;103903.72;5045106;28;20438;-68
2022/01/12 06:31:40;;;;;;;139.82;22.02;;;;;;;3.00;88.85;103903.25;5044021;28;20039;-68
2022/01/12 06:34:06;;;;;;;156.52;21.42;;;;;;;2.90;88.87;103905.44;5042119;28;20402;-70
2022/01/12 06:36:31;;;;;;;88.13;18.75;;;;;;;2.89;88.91;103903.66;5013323;28;20027;-68
2022/01/12 06:38:57;;;;;;;148.07;23.80;;;;;;;2.90;89.10;103901.94;5046386;28;20035;-66
2022/01/12 06:41:22;;;;;;;95.07;22.50;;;;;;;2.90;89.08;103907.16;5045480;28;20463;-70
2022/01/12 06:43:48;;;;;;;131.98;21.52;;;;;;;2.87;88.99;103905.31;5048057;28;20071;-67
2022/01/12 06:46:15;;;;;;;41.15;13.88;;;;;;;2.94;89.06;103906.47;5018763;28;20545;-68
2022/01/12 06:48:40;;;;;;;134.32;23.45;;;;;;;2.90;89.08;103912.38;5035386;28;20567;-68
2022/01/12 06:51:06;;;;;;;86.40;20.75;;;;;;;2.94;88.97;103913.38;5043071;28;20103;-68
2022/01/12 06:53:32;;;;;;;125.40;22.75;;;;;;;2.94;89.23;103909.09;5061711;28;20021;-67
2022/01/12 06:55:58;;;;;;;116.85;21.33;;;;;;;2.97;89.07;103909.22;5044920;28;20029;-67
2022/01/12 06:58:23;;;;;;;138.45;20.75;;;;;;;2.75;90.04;103918.63;5046509;28;20036;-67
2022/01/12 07:00:48;;;;;;;164.10;18.45;;;;;;;2.67;90.20;103924.28;5045599;28;20028;-68
2022/01/12 07:03:14;;;;;;;153.15;19.15;;;;;;;2.59;90.71;103934.31;5041063;28;20018;-65
2022/01/12 07:05:39;;;;;;;117.63;17.08;;;;;;;2.58;90.27;103942.91;5034289;28;20046;-63
2022/01/12 07:08:05;;;;;;;149.75;20.08;;;;;;;2.55;90.43;103947.97;5022693;28;20135;-64
2022/01/12 07:10:30;;;;;;;83.18;14.07;;;;;;;2.59;90.49;103955.13;5034320;28;20017;-64
2022/01/12 07:12:56;;;;;;;101.65;16.63;;;;;;;2.57;90.33;103954.16;5039084;28;20078;-65
2022/01/12 07:15:21;;;;;;;133.25;17.23;;;;;;;2.60;90.62;103956.91;5047192;28;20041;-64
2022/01/12 07:17:48;;;;;;;64.68;13.48;;;;;;;2.65;90.50;103960.66;5044619;28;20029;-65
2022/01/12 07:20:14;;;;;;;98.25;18.98;;;;;;;2.56;90.27;103958.47;5045387;28;20005;-65
2022/01/12 07:22:39;;;;;;;82.35;13.27;;;;;;;2.47;90.25;103958.88;5027006;28;20028;-66
2022/01/12 07:25:05;;;;;;;26.67;8.90;;;;;;;2.37;90.18;103949.75;5044675;28;20035;-65
2022/01/12 07:27:30;;;;;;;37.33;9.88;;;;;;;2.34;90.21;103952.19;5042388;28;20025;-66
2022/01/12 07:29:56;;;;;;;99.63;15.25;;;;;;;2.25;90.10;103960.41;5044995;28;20160;-70
2022/01/12 07:32:21;;;;;;;97.28;15.18;;;;;;;2.22;90.23;103965.47;5044802;28;20025;-69
2022/01/12 07:34:46;;;;;;;85.22;14.88;;;;;;;2.21;90.26;103968.88;5044342;28;20076;-70
2022/01/12 07:37:12;;;;;;;118.90;16.60;;;;;;;2.38;90.40;103972.34;5043868;28;20498;-68
2022/01/12 07:39:37;;;;;;;87.32;14.63;;;;;;;2.54;89.80;103973.13;5045295;28;20479;-72
2022/01/12 07:42:03;;;;;;;75.10;15.85;;;;;;;2.61;89.48;103969.09;5044520;28;20017;-67
2022/01/12 07:44:30;;;;;;;55.00;15.23;;;;;;;2.68;89.11;103975.53;5044246;28;20043;-71
2022/01/12 07:46:55;;;;;;;90.65;15.93;;;;;;;2.67;89.05;103984.16;5044200;28;20371;-70
2022/01/12 07:49:20;;;;;;;72.50;16.08;;;;;;;2.69;89.01;103974.72;5044805;28;20013;-68
2022/01/12 07:51:46;;;;;;;271.50;22.65;;;;;;;2.68;88.96;103978.13;5042301;28;20370;-68
2022/01/12 07:54:11;;;;;;;127.65;20.42;;;;;;;2.63;88.99;103976.22;5030525;28;20449;-68
2022/01/12 07:56:36;;;;;;;79.18;18.67;;;;;;;2.68;88.88;103973.81;5029722;28;20255;-69
2022/01/12 07:59:02;;;;;;;116.03;22.73;;;;;;;2.65;89.06;103979.75;5051398;28;20029;-66
2022/01/12 08:01:27;;;;;;;84.13;19.00;;;;;;;2.67;88.99;103990.25;5048428;28;20017;-65
2022/01/12 08:03:52;;;;;;;121.93;17.77;;;;;;;2.69;88.70;103996.44;5047781;28;20029;-64
2022/01/12 08:06:18;;;;;;;77.97;18.55;;;;;;;2.81;88.51;104013.50;5047543;28;20123;-65
2022/01/12 08:08:43;;;;;;;57.05;16.70;;;;;;;2.95;87.91;104015.06;5046084;28;20023;-63
2022/01/12 08:11:09;;;;;;;70.05;20.15;;;;;;;2.94;88.62;104018.50;5048116;28;20071;-66
2022/01/12 08:13:34;;;;;;;56.47;19.27;;;;;;;3.01;88.39;104017.97;5048560;28;20044;-66
2022/01/12 08:16:00;;;;;;;56.90;17.90;;;;;;;3.05;88.12;104026.84;5053495;28;20040;-65
2022/01/12 08:18:25;;;;;;;75.75;19.10;;;;;;;3.05;87.98;104028.56;5068293;28;20082;-65
2022/01/12 08:20:50;;;;;;;60.85;18.05;;;;;;;2.69;88.73;104027.69;5062662;28;20107;-63
2022/01/12 08:23:16;;;;;;;78.85;18.27;;;;;;;2.60;89.44;104029.81;5043740;28;20056;-63
2022/01/12 08:25:41;;;;;;;93.05;19.38;;;;;;;2.63;90.09;104024.78;5048832;28;20021;-64
2022/01/12 08:28:07;;;;;;;77.70;20.70;;;;;;;2.64;90.35;104017.03;5048795;28;20025;-64
2022/01/12 08:30:34;;;;;;;98.28;19.83;;;;;;;2.66;90.15;104019.72;5047625;28;20085;-72
2022/01/12 08:33:01;;;;;;;82.25;18.98;;;;;;;2.71;90.14;104020.81;5046196;28;20029;-68
2022/01/12 08:35:27;;;;;;;68.60;19.40;;;;;;;2.76;90.13;104029.78;5029511;28;20479;-71
2022/01/12 08:37:53;;;;;;;91.93;19.50;;;;;;;2.77;89.84;104039.38;5045330;28;20444;-67
2022/01/12 08:40:20;;;;;;;71.75;18.10;;;;;;;2.84;89.86;104039.69;5033188;28;20523;-67
2022/01/12 08:42:46;;;;;;;70.20;19.83;;;;;;;2.87;90.02;104042.44;5040756;28;20061;-69
2022/01/12 08:45:11;;;;;;;122.40;23.05;;;;;;;2.91;90.15;104054.81;5027987;28;20033;-72
2022/01/12 08:47:37;;;;;;;64.53;17.88;;;;;;;3.00;90.04;104054.38;5038641;28;20016;-69
2022/01/12 08:50:04;;;;;;;67.82;18.25;;;;;;;3.02;89.86;104057.97;5028769;28;20022;-70
2022/01/12 08:52:30;;;;;;;62.63;15.75;;;;;;;3.10;89.78;104058.34;5034675;28;20243;-67
2022/01/12 08:54:56;;;;;;;49.90;15.20;;;;;;;3.16;89.46;104063.84;5038210;28;20063;-65
2022/01/12 08:57:21;;;;;;;74.55;17.65;;;;;;;3.20;89.61;104071.00;5020308;28;20432;-66
2022/01/12 08:59:47;;;;;;;68.38;16.30;;;;;;;3.25;89.46;104072.13;5039778;28;20010;-65
2022/01/12 09:02:14;;;;;;;99.05;18.42;;;;;;;3.25;89.34;104079.94;5044418;28;20538;-66
2022/01/12 09:04:42;;;;;;;66.95;18.08;;;;;;;3.34;89.62;104081.22;5043549;28;20079;-68
2022/01/12 09:07:08;;;;;;;92.65;19.25;;;;;;;3.37;89.15;104074.44;5036663;28;20291;-66
2022/01/12 09:09:35;;;;;;;52.88;15.77;;;;;;;3.40;89.11;104078.88;5037048;28;20306;-69
2022/01/12 09:12:02;;;;;;;63.50;18.25;;;;;;;3.46;89.35;104094.84;5043353;28;20037;-68
2022/01/12 09:14:27;;;;;;;62.72;18.38;;;;;;;3.47;89.16;104091.44;5029681;28;20097;-69
2022/01/12 09:16:56;;;;;;;61.88;18.48;;;;;;;3.61;89.00;104088.59;5046187;28;20029;-68
2022/01/12 09:19:25;;;;;;;56.53;18.52;;;;;;;3.62;88.79;104083.44;5047945;28;20158;-68
2022/01/12 09:21:50;;;;;;;56.88;18.45;;;;;;;3.66;88.84;104087.09;5045250;28;20029;-68
2022/01/12 09:24:16;;;;;;;71.88;20.77;;;;;;;3.78;88.53;104098.09;5058848;28;20037;-69
2022/01/12 09:26:41;;;;;;;69.10;19.88;;;;;;;3.86;88.71;104106.31;5032937;28;20125;-68
2022/01/12 09:29:07;;;;;;;67.50;18.67;;;;;;;3.90;88.23;104109.94;5042458;28;20091;-68
2022/01/12 09:31:33;;;;;;;70.93;19.13;;;;;;;3.96;88.25;104118.06;5038944;28;20021;-67
2022/01/12 09:33:59;;;;;;;54.17;18.00;;;;;;;4.09;87.85;104113.41;5045944;28;20025;-67
2022/01/12 09:36:24;;;;;;;80.45;20.17;;;;;;;4.08;87.70;104122.94;5031436;28;20384;-67
2022/01/12 09:38:49;;;;;;;69.25;19.45;;;;;;;4.07;87.78;104122.88;5011216;28;20025;-67
2022/01/12 09:41:15;;;;;;;56.17;19.77;;;;;;;4.17;87.94;104118.16;5047020;28;20048;-68
2022/01/12 09:43:42;;;;;;;55.92;18.83;;;;;;;4.22;87.71;104123.59;5044749;28;20452;-63
2022/01/12 09:46:12;;;;;;;72.25;19.73;;;;;;;4.21;87.69;104131.38;5045850;28;20029;-64
2022/01/12 09:48:37;;;;;;;60.30;19.17;;;;;;;4.21;87.94;104140.06;5023761;28;20372;-65
2022/01/12 09:51:06;;;;;;;57.65;18.52;;;;;;;4.26;87.71;104143.78;5027214;28;20108;-66
2022/01/12 09:53:33;;;;;;;49.30;16.15;;;;;;;4.35;87.92;104137.19;5023074;28;20021;-67
2022/01/12 09:55:58;;;;;;;58.33;19.58;;;;;;;4.40;87.21;104154.84;5037132;28;20075;-67
2022/01/12 09:58:24;;;;;;;65.50;20.85;;;;;;;4.47;87.35;104148.22;5044611;28;20032;-68
2022/01/12 10:00:56;;;;;;;59.78;19.58;;;;;;;4.39;87.46;104133.88;5045964;28;20184;-63
2022/01/12 10:03:23;;;;;;;87.13;22.83;;;;;;;4.38;87.63;104143.47;5032280;28;20037;-64
2022/01/12 10:05:49;;;;;;;81.75;22.48;;;;;;;4.47;87.83;104147.31;5041960;28;20052;-62
2022/01/12 10:08:16;;;;;;;66.85;21.92;;;;;;;4.57;87.67;104151.25;5043718;28;20050;-60
2022/01/12 10:10:43;;;;;;;66.90;21.45;;;;;;;4.58;87.53;104142.56;5043421;28;20017;-65
2022/01/12 10:13:23;;;;;;;82.65;23.23;;;;;;;4.66;86.83;104149.00;5044490;28;20083;-63
2022/01/12 10:15:52;;;;;;;93.60;22.38;;;;;;;4.61;87.28;104150.53;5041701;28;20391;-67
2022/01/12 10:18:18;;;;;;;77.35;20.58;;;;;;;4.64;87.16;104156.78;5044888;28;20091;-70
2022/01/12 10:20:47;;;;;;;62.50;20.88;;;;;;;4.77;86.60;104147.78;5044125;28;20029;-66
2022/01/12 10:23:14;;;;;;;63.83;20.50;;;;;;;4.84;86.00;104143.72;5043521;28;20130;-67
2022/01/12 10:25:44;;;;;;;58.03;20.55;;;;;;;4.98;86.11;104136.47;5022432;28;20033;-64
2022/01/12 10:28:21;;;;;;;57.97;16.85;;;;;;;4.98;85.08;104133.88;5036813;28;20017;-64
2022/01/12 10:31:01;;;;;;;64.03;16.70;;;;;;;4.83;85.93;104125.34;5036502;28;20025;-65
2022/01/12 10:33:35;;;;;;;62.47;16.60;;;;;;;4.90;86.05;104124.78;5029424;28;20365;-68
2022/01/12 10:36:06;;;;;;;51.65;16.45;;;;;;;4.98;85.81;104123.41;5026506;28;20480;-65
2022/01/12 10:38:31;;;;;;;44.97;13.77;;;;;;;4.97;85.77;104126.84;5027240;28;20025;-64
2022/01/12 10:41:02;;;;;;;54.38;15.85;;;;;;;5.03;85.28;104134.94;5026997;28;20021;-67
2022/01/12 10:43:28;;;;;;;97.60;16.88;;;;;;;4.93;85.59;104133.66;5026504;28;20498;-77
2022/01/12 10:45:54;;;;;;;76.13;17.10;;;;;;;4.83;86.23;104125.34;5026785;28;20032;-68
2022/01/12 10:48:20;;;;;;;59.20;17.50;;;;;;;4.88;86.32;104131.69;5030380;28;20037;-71
2022/01/12 10:50:54;;;;;;;56.00;17.52;;;;;;;4.85;86.29;104128.94;5027794;28;20014;-67
2022/01/12 10:53:27;;;;;;;71.22;19.45;;;;;;;4.90;86.46;104137.84;5029138;28;20063;-75
2022/01/12 10:56:06;;;;;;;74.20;19.63;;;;;;;4.90;86.26;104158.75;5036145;28;20041;-76
2022/01/12 10:58:32;;;;;;;;;;;;;;;4.74;86.46;104165.94;5032160;28;20574;-68
2022/01/12 11:00:58;;;;;;;53.15;17.75;;;;;;;4.89;86.48;104151.75;5013159;28;19967;-71
2022/01/12 11:03:23;;;;;;;59.08;18.48;;;;;;;4.90;85.49;104162.28;5028627;28;20072;-73
2022/01/12 11:05:50;;;;;;;64.85;18.35;;;;;;;4.83;85.88;104149.78;5025222;28;20392;-71
2022/01/12 11:08:17;;;;;;;70.45;19.02;;;;;;;4.75;86.81;104138.97;5029511;28;20187;-73
2022/01/12 11:10:43;;;;;;;60.95;19.58;;;;;;;4.88;86.56;104145.63;5012049;28;20010;-69
2022/01/12 11:13:09;;;;;;;66.60;18.92;;;;;;;4.87;86.25;104140.34;5026552;28;20098;-78
2022/01/12 11:15:34;;;;;;;55.90;17.95;;;;;;;4.91;85.98;104132.69;5028630;28;20040;-76
2022/01/12 11:17:59;;;;;;;65.72;19.27;;;;;;;4.95;85.87;104119.75;5036742;28;20593;-72
2022/01/12 11:20:27;;;;;;;61.08;20.73;;;;;;;5.01;86.62;104125.25;5045972;28;20021;-72
2022/01/12 11:23:13;;;;;;;54.30;18.77;;;;;;;5.03;86.35;104124.47;5038761;28;20079;-70
2022/01/12 11:25:47;;;;;;;63.30;16.88;;;;;;;5.01;86.08;104125.25;5024267;28;20026;-71
2022/01/12 11:28:20;;;;;;;57.97;20.02;;;;;;;5.10;86.56;104119.53;5023024;28;20026;-72
2022/01/12 11:30:59;;;;;;;60.47;15.70;;;;;;;5.12;86.45;104123.09;5063404;28;20055;-72
2022/01/12 11:33:30;;;;;;;63.53;17.67;;;;;;;5.10;85.75;104109.06;5064766;28;20029;-73
2022/01/12 11:35:59;;;;;;;47.50;13.82;;;;;;;5.33;84.97;104115.28;5045688;28;20040;-74
2022/01/12 11:38:35;;;;;;;54.88;14.55;;;;;;;5.31;84.68;104107.38;5044503;28;20048;-74
2022/01/12 11:41:28;;;;;;;47.13;13.15;;;;;;;5.36;84.67;104102.28;5044500;28;20040;-74
2022/01/12 11:43:58;;;;;;;71.20;13.23;;;;;;;5.44;84.32;104098.28;5043061;28;20039;-68
2022/01/12 11:46:28;;;;;;;47.58;11.65;;;;;;;5.45;83.64;104096.56;5024794;28;20150;-65
2022/01/12 11:48:58;;;;;;;42.97;13.77;;;;;;;5.37;84.03;104100.59;5041837;28;20467;-69
2022/01/12 11:51:37;;;;;;;45.97;12.80;;;;;;;5.43;84.22;104106.97;5024993;28;20036;-67
2022/01/12 11:54:14;;;;;;;52.20;13.38;;;;;;;5.51;83.68;104112.47;5043167;28;20526;-67
2022/01/12 11:57:03;;;;;;;36.00;12.35;;;;;;;5.47;83.40;104109.69;5041910;28;20475;-66
2022/01/12 11:59:30;;;;;;;53.60;13.82;;;;;;;5.48;84.12;104112.34;5043618;28;20036;-69
2022/01/12 12:02:06;;;;;;;47.95;16.35;;;;;;;5.44;84.81;104110.47;5024423;28;20056;-66
2022/01/12 12:04:33;;;;;;;42.25;14.20;;;;;;;5.65;84.52;104093.84;5021304;28;20238;-68
2022/01/12 12:07:03;;;;;;;50.30;15.70;;;;;;;5.57;84.01;104096.16;5034621;28;20518;-66
2022/01/12 12:09:42;;;;;;;69.68;15.90;;;;;;;5.50;84.01;104097.63;5033689;28;20408;-66
2022/01/12 12:12:17;;;;;;;46.22;13.98;;;;;;;5.55;84.56;104095.19;5048994;28;20355;-67
2022/01/12 12:14:48;;;;;;;38.00;15.55;;;;;;;5.62;84.17;104089.38;5044378;28;20033;-70
2022/01/12 12:17:14;;;;;;;46.97;15.80;;;;;;;5.71;84.07;104091.47;5044691;28;20455;-69
2022/01/12 12:19:40;;;;;;;48.22;15.75;;;;;;;5.68;83.98;104086.09;5044727;28;20017;-69
2022/01/12 12:22:15;;;;;;;45.65;14.57;;;;;;;5.65;84.58;104093.84;5043237;28;20021;-71
2022/01/12 12:24:42;;;;;;;57.88;17.10;;;;;;;5.66;84.49;104085.19;5044828;28;20087;-70
2022/01/12 12:27:10;;;;;;;56.03;17.20;;;;;;;5.65;84.88;104080.75;5039433;28;20053;-71
2022/01/12 12:29:36;;;;;;;46.90;14.27;;;;;;;5.86;83.78;104075.47;5044130;28;20039;-66
2022/01/12 12:32:01;;;;;;;53.33;15.13;;;;;;;5.82;84.36;104077.06;5043882;28;20108;-70
2022/01/12 12:34:28;;;;;;;43.05;14.38;;;;;;;5.94;83.95;104075.75;5043592;28;20522;-70
2022/01/12 12:37:05;;;;;;;43.85;13.50;;;;;;;5.63;84.09;104074.59;5044100;28;20021;-72
2022/01/12 12:39:32;;;;;;;41.22;13.27;;;;;;;5.57;85.21;104070.00;5044605;28;20009;-70
2022/01/12 12:41:58;;;;;;;46.25;14.25;;;;;;;5.68;84.57;104062.56;5047009;28;20031;-66